Terminal Aerodrome Forecast
Issued by NWS

Home | Current Version | Previous Version | Text Only | Print | Product List | Glossary On
Versions: 1 2 3 4 5 6 7 8 9 10 11 12 13 14 15 16 17 18 19
000
FTUS43 KAPX 282320
TAFPLN
TAF
KPLN 282320Z 2900/2924 24005KT P6SM BKN080 BKN150
     FM290400 24005KT P6SM VCSH OVC080
     FM290600 24004KT P6SM -SHRA FEW025 OVC080
     FM291100 20004KT 6SM -SHRA BR BKN025 OVC050
     FM291500 24009KT P6SM VCSH BKN030 OVC050=

USA.gov is the U.S. government's official web portal to all federal, state and local government web resources and services.